createdAt,value
2022-09-22T00:01:37.355Z,98322.97
2022-09-22T00:04:07.402Z,98319.56
2022-09-22T00:06:37.220Z,98316.66
2022-09-22T00:09:06.228Z,98323.50
2022-09-22T00:11:36.509Z,98325.03
2022-09-22T00:14:07.271Z,98325.34
2022-09-22T00:16:39.606Z,98312.81
2022-09-22T00:19:11.639Z,98320.44
2022-09-22T00:21:39.953Z,98315.28
2022-09-22T00:24:08.609Z,98317.88
2022-09-22T00:26:37.577Z,98316.59
2022-09-22T00:29:08.174Z,98311.41
2022-09-22T00:31:38.288Z,98314.72
2022-09-22T00:34:07.800Z,98321.25
2022-09-22T00:36:36.168Z,98309.19
2022-09-22T00:39:04.521Z,98308.72
2022-09-22T00:41:34.331Z,98311.75
2022-09-22T00:44:27.337Z,98312.97
2022-09-22T00:46:59.671Z,98318.53
2022-09-22T00:49:31.715Z,98311.41
2022-09-22T00:52:00.131Z,98305.09
2022-09-22T00:54:28.484Z,98308.63
2022-09-22T00:59:44.955Z,98299.22
2022-09-22T01:02:14.837Z,98306.41
2022-09-22T01:04:43.475Z,98299.22
2022-09-22T01:07:12.213Z,98291.41
2022-09-22T01:09:41.075Z,98293.53
2022-09-22T01:12:09.410Z,98285.19
2022-09-22T01:14:47.884Z,98293.00
2022-09-22T01:17:23.041Z,98287.00
2022-09-22T01:20:06.538Z,98282.41
2022-09-22T01:22:47.796Z,98290.66
2022-09-22T01:25:30.623Z,98280.97
2022-09-22T01:28:15.720Z,98279.66
2022-09-22T01:30:47.597Z,98277.03
2022-09-22T01:33:30.546Z,98278.50
2022-09-22T01:36:04.439Z,98270.38
2022-09-22T01:38:34.955Z,98275.19
2022-09-22T01:41:04.759Z,98271.66
2022-09-22T01:46:27.151Z,98270.88
2022-09-22T01:48:56.967Z,98264.38
2022-09-22T01:51:26.212Z,98270.69
2022-09-22T01:53:57.239Z,98261.81
2022-09-22T01:56:25.635Z,98265.00
2022-09-22T01:58:55.379Z,98259.84
2022-09-22T02:01:27.346Z,98266.06
2022-09-22T02:03:58.382Z,98260.72
2022-09-22T02:06:29.714Z,98260.06
2022-09-22T02:08:59.034Z,98261.88
2022-09-22T02:11:27.519Z,98256.34
2022-09-22T02:13:56.302Z,98256.47
2022-09-22T02:16:26.220Z,98252.16
2022-09-22T02:18:55.727Z,98249.91
2022-09-22T02:21:24.776Z,98247.97
2022-09-22T02:23:53.068Z,98243.72
2022-09-22T02:26:24.015Z,98244.78
2022-09-22T02:28:53.349Z,98242.63
2022-09-22T02:31:22.179Z,98244.56
2022-09-22T02:33:52.113Z,98235.97
2022-09-22T02:36:28.509Z,98235.34
2022-09-22T02:39:01.211Z,98243.25
2022-09-22T02:41:50.433Z,98249.69
2022-09-22T02:44:21.233Z,98240.41
2022-09-22T02:46:51.534Z,98237.25
2022-09-22T02:49:21.202Z,98243.59
2022-09-22T02:51:50.028Z,98235.03
2022-09-22T02:54:19.655Z,98237.59
2022-09-22T02:56:47.994Z,98234.59
2022-09-22T02:59:16.270Z,98233.63
2022-09-22T03:01:44.632Z,98228.50
2022-09-22T03:04:12.957Z,98226.72
2022-09-22T03:06:42.911Z,98226.16
2022-09-22T03:09:11.250Z,98218.22
2022-09-22T03:11:39.562Z,98216.19
2022-09-22T03:14:07.878Z,98214.88
2022-09-22T03:16:36.191Z,98217.50
2022-09-22T03:19:04.857Z,98219.72
2022-09-22T03:21:33.677Z,98220.28
2022-09-22T03:24:03.842Z,98213.72
2022-09-22T03:26:32.146Z,98211.63
2022-09-22T03:29:00.493Z,98212.06
2022-09-22T03:31:29.195Z,98211.63
2022-09-22T03:33:57.457Z,98210.25
2022-09-22T03:36:25.818Z,98204.56
2022-09-22T03:38:54.310Z,98210.75
2022-09-22T03:41:24.420Z,98200.16
2022-09-22T03:43:52.719Z,98207.03
2022-09-22T03:46:21.089Z,98205.75
2022-09-22T03:48:49.459Z,98203.19
2022-09-22T03:51:17.706Z,98203.19
2022-09-22T03:53:46.601Z,98203.28
2022-09-22T03:56:15.661Z,98208.44
2022-09-22T03:58:45.373Z,98206.06
2022-09-22T04:01:13.684Z,98209.59
2022-09-22T04:03:42.105Z,98206.81
2022-09-22T04:06:11.514Z,98198.03
2022-09-22T04:08:39.937Z,98199.09
2022-09-22T04:11:08.526Z,98204.03
2022-09-22T04:13:36.811Z,98194.91
2022-09-22T04:16:07.273Z,98183.72
2022-09-22T04:18:35.570Z,98183.59
2022-09-22T04:21:03.843Z,98188.31
2022-09-22T04:23:32.129Z,98186.72
2022-09-22T04:26:01.661Z,98182.75
2022-09-22T04:28:30.389Z,98188.94
2022-09-22T04:30:58.849Z,98182.19
2022-09-22T04:33:28.652Z,98194.19
2022-09-22T04:35:57.404Z,98182.66
2022-09-22T04:38:25.700Z,98188.94
2022-09-22T04:40:54.377Z,98181.78
2022-09-22T04:43:22.683Z,98186.47
2022-09-22T04:45:51.741Z,98187.56
2022-09-22T04:48:20.020Z,98186.09
2022-09-22T04:50:49.765Z,98184.06
2022-09-22T04:53:18.129Z,98191.09
2022-09-22T04:55:46.537Z,98184.66
2022-09-22T04:58:14.968Z,98189.06
2022-09-22T05:00:43.283Z,98185.44
2022-09-22T05:03:12.352Z,98186.72
2022-09-22T05:05:41.279Z,98188.31
2022-09-22T05:08:10.935Z,98190.69
2022-09-22T05:10:39.189Z,98182.75
2022-09-22T05:13:08.174Z,98183.72
2022-09-22T05:15:37.725Z,98185.69
2022-09-22T05:18:06.142Z,98194.56
2022-09-22T05:20:34.411Z,98194.31
2022-09-22T05:23:03.063Z,98194.09
2022-09-22T05:25:32.718Z,98190.88
2022-09-22T05:28:23.146Z,98187.78
2022-09-22T05:30:52.723Z,98195.16
2022-09-22T05:33:21.582Z,98194.09
2022-09-22T05:35:53.190Z,98195.50
2022-09-22T05:38:21.519Z,98191.53
2022-09-22T05:41:10.106Z,98196.88
2022-09-22T05:43:38.584Z,98192.19
2022-09-22T05:46:07.102Z,98198.16
2022-09-22T05:48:35.810Z,98195.06
2022-09-22T05:51:04.333Z,98196.59
2022-09-22T05:53:32.614Z,98199.47
2022-09-22T05:56:01.737Z,98199.78
2022-09-22T05:58:37.184Z,98202.59
2022-09-22T06:01:05.801Z,98203.78
2022-09-22T06:03:34.115Z,98202.06
2022-09-22T06:06:03.096Z,98203.81
2022-09-22T06:08:31.548Z,98204.50
2022-09-22T06:11:01.315Z,98201.50
2022-09-22T06:13:32.548Z,98211.34
2022-09-22T06:16:02.326Z,98207.53
2022-09-22T06:18:31.898Z,98210.88
2022-09-22T06:21:05.650Z,98211.19
2022-09-22T06:23:39.366Z,98200.44
2022-09-22T06:26:14.572Z,98202.03
2022-09-22T06:28:44.298Z,98203.16
2022-09-22T06:31:15.512Z,98197.13
2022-09-22T06:33:48.490Z,98187.25
2022-09-22T06:36:24.482Z,98193.00
2022-09-22T06:38:54.401Z,98190.72
2022-09-22T06:41:23.298Z,98195.19
2022-09-22T06:43:56.624Z,98191.25
2022-09-22T06:46:29.113Z,98193.59
2022-09-22T06:48:59.268Z,98194.22
2022-09-22T06:51:28.085Z,98198.09
2022-09-22T06:53:56.644Z,98192.00
2022-09-22T06:56:26.252Z,98194.00
2022-09-22T06:59:10.019Z,98192.19
2022-09-22T07:01:39.020Z,98194.00
2022-09-22T07:04:07.591Z,98190.00
2022-09-22T07:06:36.901Z,98194.50
2022-09-22T07:09:06.021Z,98188.91
2022-09-22T07:11:39.565Z,98195.50
2022-09-22T07:14:10.451Z,98196.72
2022-09-22T07:16:38.814Z,98198.81
2022-09-22T07:19:08.327Z,98198.72
2022-09-22T07:21:38.029Z,98200.41
2022-09-22T07:26:54.694Z,98200.41
2022-09-22T07:29:24.472Z,98198.94
2022-09-22T07:31:53.625Z,98202.59
2022-09-22T07:34:22.105Z,98195.75
2022-09-22T07:37:11.460Z,98199.09
2022-09-22T07:39:45.489Z,98193.38
2022-09-22T07:42:13.783Z,98193.66
2022-09-22T07:44:57.509Z,98188.72
2022-09-22T07:47:39.599Z,98187.44
2022-09-22T07:50:08.689Z,98184.41
2022-09-22T07:52:37.321Z,98189.59
2022-09-22T07:55:06.461Z,98188.88
2022-09-22T07:57:35.297Z,98188.34
2022-09-22T08:00:05.908Z,98184.00
2022-09-22T08:02:36.043Z,98187.34
2022-09-22T08:05:04.486Z,98186.63
2022-09-22T08:07:37.493Z,98187.28
2022-09-22T08:12:53.465Z,98186.69
2022-09-22T08:15:42.454Z,98186.28
2022-09-22T08:18:10.964Z,98190.16
2022-09-22T08:20:44.221Z,98189.19
2022-09-22T08:23:13.593Z,98193.25
2022-09-22T08:25:42.426Z,98184.00
2022-09-22T08:28:10.995Z,98187.59
2022-09-22T08:30:40.790Z,98185.91
2022-09-22T08:33:09.151Z,98189.38
2022-09-22T08:35:38.131Z,98184.38
2022-09-22T08:38:12.626Z,98188.00
2022-09-22T08:40:41.624Z,98189.84
2022-09-22T08:43:10.574Z,98181.44
2022-09-22T08:45:40.892Z,98188.03
2022-09-22T08:48:27.348Z,98187.97
2022-09-22T08:51:11.294Z,98187.44
2022-09-22T08:53:43.689Z,98182.44
2022-09-22T08:56:19.070Z,98182.03
2022-09-22T08:58:49.987Z,98187.31
2022-09-22T09:01:26.169Z,98190.19
2022-09-22T09:03:58.739Z,98180.00
2022-09-22T09:06:32.918Z,98192.09
2022-09-22T09:09:23.076Z,98197.97
2022-09-22T09:12:04.271Z,98187.75
2022-09-22T09:14:41.746Z,98196.81
2022-09-22T09:17:13.124Z,98186.31
2022-09-22T09:19:42.759Z,98182.34
2022-09-22T09:22:35.756Z,98191.44
2022-09-22T09:27:55.374Z,98190.00
2022-09-22T09:30:24.003Z,98182.91
2022-09-22T09:32:54.947Z,98185.03
2022-09-22T09:35:26.972Z,98177.38
2022-09-22T09:37:58.346Z,98180.06
2022-09-22T09:40:27.907Z,98181.63
2022-09-22T09:42:57.999Z,98186.03
2022-09-22T09:45:29.465Z,98183.75
2022-09-22T09:48:24.524Z,98178.66
2022-09-22T09:51:12.233Z,98169.81
2022-09-22T09:53:43.574Z,98170.38
2022-09-22T09:56:18.958Z,98173.31
2022-09-22T09:59:11.639Z,98166.53
2022-09-22T10:01:42.354Z,98165.56
2022-09-22T10:04:22.269Z,98158.34
2022-09-22T10:06:50.987Z,98159.31
2022-09-22T10:09:29.080Z,98151.59
2022-09-22T10:12:02.335Z,98151.25
2022-09-22T10:14:33.005Z,98142.75
2022-09-22T10:17:01.342Z,98146.25
2022-09-22T10:19:32.122Z,98142.44
2022-09-22T10:22:19.129Z,98137.25
2022-09-22T10:24:55.817Z,98132.63
2022-09-22T10:27:25.201Z,98126.88
2022-09-22T10:30:15.448Z,98124.13
2022-09-22T10:32:44.485Z,98124.44
2022-09-22T10:35:28.541Z,98131.66
2022-09-22T10:37:57.476Z,98120.66
2022-09-22T10:40:26.658Z,98124.63
2022-09-22T10:42:55.469Z,98125.84
2022-09-22T10:45:26.221Z,98116.91
2022-09-22T10:48:00.889Z,98118.59
2022-09-22T10:50:38.301Z,98120.75
2022-09-22T10:53:15.385Z,98121.19
2022-09-22T10:55:48.548Z,98120.66
2022-09-22T10:58:28.545Z,98122.84
2022-09-22T11:01:06.909Z,98117.50
2022-09-22T11:03:47.687Z,98115.72
2022-09-22T11:06:38.537Z,98114.44
2022-09-22T11:09:27.033Z,98116.00
2022-09-22T11:12:12.267Z,98103.84
2022-09-22T11:14:49.231Z,98107.81
2022-09-22T11:17:24.094Z,98109.78
2022-09-22T11:20:03.524Z,98105.81
2022-09-22T11:22:42.135Z,98101.44
2022-09-22T11:25:21.753Z,98103.75
2022-09-22T11:27:58.414Z,98100.13
2022-09-22T11:30:27.225Z,98098.13
2022-09-22T11:33:11.507Z,98103.88
2022-09-22T11:35:45.848Z,98103.44
2022-09-22T11:38:25.297Z,98094.41
2022-09-22T11:41:01.976Z,98092.97
2022-09-22T11:43:59.174Z,98088.75
2022-09-22T11:46:32.797Z,98079.44
2022-09-22T11:49:09.413Z,98078.72
2022-09-22T11:51:46.321Z,98073.97
2022-09-22T11:54:25.686Z,98077.38
2022-09-22T11:56:54.579Z,98079.88
2022-09-22T11:59:32.420Z,98072.66
2022-09-22T12:02:04.869Z,98063.16
2022-09-22T12:04:36.991Z,98053.50
2022-09-22T12:07:07.982Z,98061.75
2022-09-22T12:09:39.149Z,98059.50
2022-09-22T12:12:07.880Z,98055.13
2022-09-22T12:14:36.311Z,98049.53
2022-09-22T12:17:07.524Z,98055.69
2022-09-22T12:19:42.071Z,98042.19
2022-09-22T12:22:15.325Z,98050.38
2022-09-22T12:24:48.406Z,98046.06
2022-09-22T12:27:21.319Z,98040.75
2022-09-22T12:29:56.284Z,98047.06
2022-09-22T12:32:25.367Z,98029.81
2022-09-22T12:34:54.446Z,98031.88
2022-09-22T12:37:28.734Z,98036.53
2022-09-22T12:39:59.300Z,98026.72
2022-09-22T12:42:31.750Z,98023.38
2022-09-22T12:45:06.842Z,98016.75
2022-09-22T12:47:36.079Z,98005.47
2022-09-22T12:50:25.666Z,98012.38
2022-09-22T12:53:02.576Z,98004.91
2022-09-22T12:55:38.655Z,98007.78
2022-09-22T12:58:37.324Z,98002.59
2022-09-22T13:01:32.826Z,97997.50
2022-09-22T13:04:13.201Z,97997.56
2022-09-22T13:06:53.833Z,97989.66
2022-09-22T13:09:26.106Z,97990.56
2022-09-22T13:12:24.700Z,98002.75
2022-09-22T13:15:01.326Z,97995.38
2022-09-22T13:17:37.819Z,97992.16
2022-09-22T13:20:16.663Z,97992.13
2022-09-22T13:22:45.398Z,97986.97
2022-09-22T13:25:17.881Z,97988.38
2022-09-22T13:27:46.395Z,97992.97
2022-09-22T13:30:16.688Z,97985.91
2022-09-22T13:32:50.823Z,97976.66
2022-09-22T13:35:26.497Z,97978.91
2022-09-22T13:37:57.026Z,97981.13
2022-09-22T13:40:28.520Z,97968.66
2022-09-22T13:42:58.201Z,97971.34
2022-09-22T13:45:28.323Z,97973.28
2022-09-22T13:47:58.459Z,97969.22
2022-09-22T13:50:27.225Z,97967.53
2022-09-22T13:52:55.881Z,97963.34
2022-09-22T13:55:27.033Z,97966.69
2022-09-22T13:57:57.511Z,97956.66
2022-09-22T14:01:12.181Z,97965.22
2022-09-22T14:03:39.021Z,97956.38
2022-09-22T14:06:10.740Z,97955.00
2022-09-22T14:08:39.076Z,97947.75
2022-09-22T14:11:13.293Z,97949.63
2022-09-22T14:13:44.106Z,97951.47
2022-09-22T14:16:17.619Z,97945.19
2022-09-22T14:18:47.373Z,97951.13
2022-09-22T14:21:20.994Z,97948.44
2022-09-22T14:23:52.244Z,97942.19
2022-09-22T14:26:32.130Z,97943.56
2022-09-22T14:29:00.877Z,97939.97
2022-09-22T14:31:34.800Z,97932.19
2022-09-22T14:34:03.631Z,97929.81
2022-09-22T14:36:33.573Z,97924.03
2022-09-22T14:39:09.990Z,97934.22
2022-09-22T14:41:39.734Z,97922.69
2022-09-22T14:44:25.093Z,97911.22
2022-09-22T14:46:56.567Z,97909.66
2022-09-22T14:49:39.659Z,97911.84
2022-09-22T14:52:14.124Z,97908.28
2022-09-22T14:54:43.365Z,97897.31
2022-09-22T14:57:11.699Z,97901.72
2022-09-22T14:59:53.805Z,97897.78
2022-09-22T15:02:33.752Z,97892.53
2022-09-22T15:05:03.915Z,97891.19
2022-09-22T15:07:32.807Z,97899.34
2022-09-22T15:10:02.658Z,97886.28
2022-09-22T15:12:39.381Z,97888.50
2022-09-22T15:15:17.792Z,97890.03
2022-09-22T15:18:01.798Z,97890.00
2022-09-22T15:20:49.018Z,97886.09
2022-09-22T15:23:23.659Z,97887.28
2022-09-22T15:25:52.428Z,97887.28
2022-09-22T15:28:23.317Z,97886.63
2022-09-22T15:30:52.134Z,97879.66
2022-09-22T15:33:22.277Z,97884.91
2022-09-22T15:35:53.894Z,97881.69
2022-09-22T15:38:23.785Z,97875.59
2022-09-22T15:40:52.230Z,97876.97
2022-09-22T15:43:24.315Z,97874.56
2022-09-22T15:45:56.357Z,97872.91
2022-09-22T15:48:44.809Z,97874.94
2022-09-22T15:51:14.154Z,97871.53
2022-09-22T15:53:42.974Z,97873.56
2022-09-22T15:56:14.024Z,97866.13
2022-09-22T15:58:47.880Z,97879.00
2022-09-22T16:01:17.827Z,97871.19
2022-09-22T16:03:47.564Z,97867.28
2022-09-22T16:06:16.702Z,97863.34
2022-09-22T16:08:46.367Z,97859.97
2022-09-22T16:11:16.210Z,97862.31
2022-09-22T16:13:44.717Z,97859.63
2022-09-22T16:16:13.949Z,97858.19
2022-09-22T16:18:47.147Z,97854.59
2022-09-22T16:21:20.717Z,97849.59
2022-09-22T16:23:49.066Z,97852.28
2022-09-22T16:26:17.320Z,97856.28
2022-09-22T16:28:45.691Z,97862.78
2022-09-22T16:31:15.831Z,97856.31
2022-09-22T16:33:44.575Z,97853.00
2022-09-22T16:36:12.900Z,97862.72
2022-09-22T16:38:43.040Z,97849.28
2022-09-22T16:41:20.221Z,97850.50
2022-09-22T16:44:07.142Z,97858.84
2022-09-22T16:46:38.708Z,97848.69
2022-09-22T16:49:08.375Z,97849.19
2022-09-22T16:51:55.778Z,97851.06
2022-09-22T16:54:26.500Z,97856.88
2022-09-22T16:56:55.196Z,97857.19
2022-09-22T16:59:27.926Z,97847.91
2022-09-22T17:01:56.659Z,97862.31
2022-09-22T17:04:25.001Z,97859.88
2022-09-22T17:06:54.250Z,97854.56
2022-09-22T17:09:23.254Z,97858.72
2022-09-22T17:11:53.814Z,97856.22
2022-09-22T17:14:25.059Z,97852.66
2022-09-22T17:16:55.596Z,97858.94
2022-09-22T17:19:24.595Z,97861.13
2022-09-22T17:21:55.598Z,97862.34
2022-09-22T17:24:24.288Z,97857.06
2022-09-22T17:26:55.008Z,97853.66
2022-09-22T17:29:25.322Z,97861.69
2022-09-22T17:31:55.806Z,97864.66
2022-09-22T17:34:24.393Z,97863.59
2022-09-22T17:36:52.815Z,97858.38
2022-09-22T17:39:38.856Z,97857.72
2022-09-22T17:42:08.821Z,97858.63
2022-09-22T17:44:37.154Z,97860.72
2022-09-22T17:47:19.309Z,97857.00
2022-09-22T17:50:01.373Z,97861.78
2022-09-22T17:52:58.646Z,97865.03
2022-09-22T17:55:27.158Z,97866.44
2022-09-22T17:57:57.469Z,97863.91
2022-09-22T18:00:25.976Z,97864.78
2022-09-22T18:02:55.139Z,97867.91
2022-09-22T18:05:25.727Z,97866.34
2022-09-22T18:07:58.021Z,97865.66
2022-09-22T18:10:32.437Z,97867.94
2022-09-22T18:13:03.179Z,97870.22
2022-09-22T18:15:31.662Z,97863.13
2022-09-22T18:18:00.367Z,97871.06
2022-09-22T18:20:29.865Z,97870.06
2022-09-22T18:23:00.482Z,97861.16
2022-09-22T18:25:46.473Z,97864.56
2022-09-22T18:28:16.170Z,97861.56
2022-09-22T18:30:44.696Z,97861.44
2022-09-22T18:33:14.410Z,97862.84
2022-09-22T18:35:46.108Z,97867.13
2022-09-22T18:38:14.912Z,97858.19
2022-09-22T18:40:43.235Z,97867.25
2022-09-22T18:43:11.996Z,97870.22
2022-09-22T18:45:41.665Z,97869.94
2022-09-22T18:48:12.976Z,97860.84
2022-09-22T18:50:43.074Z,97877.81
2022-09-22T18:53:11.454Z,97863.81
2022-09-22T18:55:39.742Z,97866.56
2022-09-22T18:58:09.351Z,97870.25
2022-09-22T19:00:37.701Z,97855.97
2022-09-22T19:03:17.673Z,97864.03
2022-09-22T19:05:49.110Z,97863.88
2022-09-22T19:08:20.559Z,97864.56
2022-09-22T19:10:50.314Z,97867.38
2022-09-22T19:13:18.908Z,97857.09
2022-09-22T19:15:48.977Z,97855.38
2022-09-22T19:18:21.440Z,97859.50
2022-09-22T19:20:49.742Z,97866.69
2022-09-22T19:23:18.947Z,97870.94
2022-09-22T19:25:51.974Z,97862.44
2022-09-22T19:28:20.269Z,97862.56
2022-09-22T19:30:48.625Z,97861.47
2022-09-22T19:33:21.052Z,97858.34
2022-09-22T19:35:49.509Z,97858.78
2022-09-22T19:38:18.913Z,97857.78
2022-09-22T19:40:49.982Z,97858.06
2022-09-22T19:43:18.367Z,97854.50
2022-09-22T19:45:46.663Z,97857.47
2022-09-22T19:48:15.453Z,97857.31
2022-09-22T19:50:45.788Z,97852.09
2022-09-22T19:53:14.236Z,97850.53
2022-09-22T19:55:44.174Z,97853.66
2022-09-22T19:58:12.508Z,97846.44
2022-09-22T20:00:46.704Z,97852.44
2022-09-22T20:03:15.088Z,97844.28
2022-09-22T20:05:43.495Z,97853.59
2022-09-22T20:08:15.977Z,97850.19
2022-09-22T20:10:44.498Z,97842.44
2022-09-22T20:13:27.025Z,97842.97
2022-09-22T20:15:55.395Z,97848.69
2022-09-22T20:18:23.743Z,97847.25
2022-09-22T20:20:52.355Z,97836.63
2022-09-22T20:23:22.808Z,97841.59
2022-09-22T20:25:51.815Z,97846.09
2022-09-22T20:28:21.495Z,97839.31
2022-09-22T20:30:50.980Z,97838.41
2022-09-22T20:33:20.732Z,97843.84
2022-09-22T20:35:49.458Z,97842.50
2022-09-22T20:38:17.780Z,97835.47
2022-09-22T20:40:48.066Z,97834.78
2022-09-22T20:43:17.613Z,97839.44
2022-09-22T20:45:46.111Z,97839.72
2022-09-22T20:48:16.992Z,97839.66
2022-09-22T20:50:45.634Z,97835.91
2022-09-22T20:53:14.660Z,97838.13
2022-09-22T20:55:43.367Z,97834.59
2022-09-22T20:58:13.278Z,97835.69
2022-09-22T21:00:41.597Z,97836.50
2022-09-22T21:03:10.067Z,97840.63
2022-09-22T21:05:39.969Z,97835.03
2022-09-22T21:08:22.064Z,97838.66
2022-09-22T21:10:51.239Z,97829.16
2022-09-22T21:13:22.627Z,97832.56
2022-09-22T21:15:51.303Z,97831.59
2022-09-22T21:18:24.866Z,97834.63
2022-09-22T21:20:53.419Z,97823.44
2022-09-22T21:23:21.870Z,97824.47
2022-09-22T21:25:57.748Z,97828.88
2022-09-22T21:28:27.480Z,97827.97
2022-09-22T21:30:56.849Z,97825.59
2022-09-22T21:33:27.267Z,97825.19
2022-09-22T21:36:04.206Z,97825.59
2022-09-22T21:38:32.581Z,97822.84
2022-09-22T21:41:01.334Z,97819.66
2022-09-22T21:43:31.020Z,97810.28
2022-09-22T21:46:04.980Z,97809.72
2022-09-22T21:48:36.469Z,97808.81
2022-09-22T21:51:06.117Z,97797.28
2022-09-22T21:53:34.781Z,97812.78
2022-09-22T21:56:03.941Z,97804.34
2022-09-22T21:58:34.768Z,97799.09
2022-09-22T22:01:06.914Z,97799.09
2022-09-22T22:03:35.401Z,97806.00
2022-09-22T22:06:06.075Z,97808.81
2022-09-22T22:08:37.192Z,97802.47
2022-09-22T22:11:07.125Z,97801.63
2022-09-22T22:13:38.865Z,97801.03
2022-09-22T22:16:08.243Z,97800.22
2022-09-22T22:18:36.882Z,97797.84
2022-09-22T22:21:06.706Z,97793.91
2022-09-22T22:23:36.312Z,97792.00
2022-09-22T22:26:07.793Z,97785.28
2022-09-22T22:28:37.529Z,97787.84
2022-09-22T22:31:07.081Z,97790.47
2022-09-22T22:33:36.021Z,97785.94
2022-09-22T22:36:04.725Z,97791.34
2022-09-22T22:38:33.017Z,97783.19
2022-09-22T22:41:02.569Z,97781.69
2022-09-22T22:43:31.070Z,97786.84
2022-09-22T22:46:01.396Z,97790.97
2022-09-22T22:48:31.337Z,97781.34
2022-09-22T22:50:59.654Z,97785.13
2022-09-22T22:53:28.338Z,97784.94
2022-09-22T22:55:57.743Z,97778.00
2022-09-22T22:58:27.229Z,97775.75
2022-09-22T23:01:03.146Z,97768.44
2022-09-22T23:03:31.532Z,97772.25
2022-09-22T23:06:00.305Z,97772.94
2022-09-22T23:08:28.665Z,97772.88
2022-09-22T23:11:02.399Z,97770.94
2022-09-22T23:13:31.448Z,97774.94
2022-09-22T23:16:05.947Z,97769.22
2022-09-22T23:18:35.326Z,97766.34
2022-09-22T23:21:04.117Z,97770.00
2022-09-22T23:23:32.490Z,97764.84
2022-09-22T23:26:01.368Z,97764.16
2022-09-22T23:28:31.290Z,97765.38
2022-09-22T23:30:59.852Z,97760.19
2022-09-22T23:33:29.925Z,97756.41
2022-09-22T23:35:58.639Z,97750.56
2022-09-22T23:38:27.813Z,97756.53
2022-09-22T23:40:56.761Z,97754.84
2022-09-22T23:43:25.134Z,97754.72
2022-09-22T23:45:53.914Z,97754.41
2022-09-22T23:48:24.182Z,97746.34
2022-09-22T23:50:54.751Z,97743.97
2022-09-22T23:53:26.865Z,97743.91
2022-09-22T23:55:55.115Z,97744.31
2022-09-22T23:58:23.414Z,97745.88
